createdAt,value
2024-01-12T00:00:42.215Z,11.02
2024-01-12T00:03:09.089Z,9.90
2024-01-12T00:05:36.728Z,12.68
2024-01-12T00:08:03.942Z,12.52
2024-01-12T00:10:30.937Z,11.10
2024-01-12T00:12:57.804Z,10.07
2024-01-12T00:15:24.724Z,5.25
2024-01-12T00:17:51.776Z,7.93
2024-01-12T00:20:18.753Z,9.02
2024-01-12T00:22:45.669Z,11.07
2024-01-12T00:25:13.585Z,9.45
2024-01-12T00:27:40.489Z,7.85
2024-01-12T00:30:08.985Z,5.97
2024-01-12T00:32:40.357Z,7.68
2024-01-12T00:35:07.620Z,6.90
2024-01-12T00:37:36.622Z,6.70
2024-01-12T00:40:03.883Z,6.47
2024-01-12T00:42:30.941Z,8.13
2024-01-12T00:44:57.996Z,7.57
2024-01-12T00:47:25.170Z,5.90
2024-01-12T00:49:52.331Z,10.88
2024-01-12T00:52:19.271Z,9.02
2024-01-12T00:54:46.196Z,13.38
2024-01-12T00:57:13.263Z,12.60
2024-01-12T00:59:40.316Z,12.63
2024-01-12T01:02:07.256Z,15.65
2024-01-12T01:04:34.146Z,13.98
2024-01-12T01:07:01.154Z,16.70
2024-01-12T01:09:28.609Z,14.48
2024-01-12T01:11:55.567Z,11.75
2024-01-12T01:14:26.330Z,13.23
2024-01-12T01:16:54.408Z,14.40
2024-01-12T01:19:22.085Z,13.20
2024-01-12T01:21:49.122Z,12.88
2024-01-12T01:24:16.471Z,13.80
2024-01-12T01:26:43.372Z,11.82
2024-01-12T01:29:10.302Z,9.98
2024-01-12T01:31:37.253Z,9.25
2024-01-12T01:34:04.265Z,9.30
2024-01-12T01:36:34.037Z,10.20
2024-01-12T01:39:00.984Z,10.15
2024-01-12T01:41:28.327Z,14.20
2024-01-12T01:43:55.260Z,10.32
2024-01-12T01:46:23.848Z,12.57
2024-01-12T01:48:51.634Z,9.70
2024-01-12T01:51:18.632Z,9.13
2024-01-12T01:53:45.814Z,9.90
2024-01-12T01:56:15.097Z,12.38
2024-01-12T01:58:44.336Z,11.68
2024-01-12T02:01:12.647Z,10.82
2024-01-12T02:03:42.271Z,19.20
2024-01-12T02:06:10.238Z,14.63
2024-01-12T02:08:38.067Z,12.60
2024-01-12T02:11:05.815Z,10.73
2024-01-12T02:13:32.957Z,11.15
2024-01-12T02:16:00.218Z,12.10
2024-01-12T02:18:27.406Z,10.77
2024-01-12T02:20:58.810Z,11.73
2024-01-12T02:23:25.927Z,10.63
2024-01-12T02:25:53.132Z,14.75
2024-01-12T02:28:20.431Z,14.57
2024-01-12T02:30:48.342Z,12.77
2024-01-12T02:33:15.577Z,12.52
2024-01-12T02:35:42.627Z,11.73
2024-01-12T02:38:09.569Z,11.90
2024-01-12T02:40:36.479Z,12.55
2024-01-12T02:43:04.804Z,11.45
2024-01-12T02:45:31.760Z,11.05
2024-01-12T02:47:59.010Z,12.32
2024-01-12T02:50:26.130Z,13.48
2024-01-12T02:52:53.175Z,18.90
2024-01-12T02:55:20.208Z,13.75
2024-01-12T02:57:47.181Z,15.68
2024-01-12T03:00:15.144Z,16.83
2024-01-12T03:02:42.126Z,14.48
2024-01-12T03:05:09.549Z,15.68
2024-01-12T03:07:38.871Z,17.05
2024-01-12T03:10:06.613Z,14.90
2024-01-12T03:12:33.508Z,15.82
2024-01-12T03:15:00.603Z,14.30
2024-01-12T03:17:27.778Z,15.55
2024-01-12T03:19:54.764Z,13.90
2024-01-12T03:22:21.669Z,13.88
2024-01-12T03:24:49.609Z,14.75
2024-01-12T03:27:16.507Z,13.35
2024-01-12T03:29:43.491Z,10.18
2024-01-12T03:32:10.512Z,13.65
2024-01-12T03:34:37.411Z,14.23
2024-01-12T03:37:04.504Z,9.65
2024-01-12T03:39:31.492Z,10.73
2024-01-12T03:41:58.863Z,9.80
2024-01-12T03:44:25.971Z,9.43
2024-01-12T03:46:52.856Z,12.68
2024-01-12T03:49:20.515Z,10.30
2024-01-12T03:51:54.804Z,9.73
2024-01-12T03:54:23.886Z,11.18
2024-01-12T03:56:51.422Z,10.82
2024-01-12T03:59:18.381Z,9.75
2024-01-12T04:01:47.003Z,12.63
2024-01-12T04:04:14.781Z,15.25
2024-01-12T04:06:42.247Z,11.38
2024-01-12T04:09:13.644Z,11.70
2024-01-12T04:11:41.065Z,11.43
2024-01-12T04:14:08.011Z,12.98
2024-01-12T04:16:34.909Z,10.25
2024-01-12T04:19:01.925Z,10.82
2024-01-12T04:21:29.147Z,9.85
2024-01-12T04:23:56.336Z,9.35
2024-01-12T04:26:23.304Z,10.98
2024-01-12T04:28:51.050Z,12.23
2024-01-12T04:31:18.029Z,13.63
2024-01-12T04:33:45.345Z,13.02
2024-01-12T04:36:12.798Z,11.10
2024-01-12T04:38:40.152Z,12.60
2024-01-12T04:41:07.047Z,13.20
2024-01-12T04:43:34.517Z,11.38
2024-01-12T04:46:01.582Z,11.73
2024-01-12T04:48:28.547Z,12.75
2024-01-12T04:50:56.761Z,15.07
2024-01-12T04:53:25.573Z,13.85
2024-01-12T04:55:52.917Z,12.50
2024-01-12T04:58:19.975Z,15.90
2024-01-12T05:00:47.098Z,13.88
2024-01-12T05:03:16.581Z,19.80
2024-01-12T05:05:43.968Z,12.38
2024-01-12T05:08:11.091Z,12.13
2024-01-12T05:10:38.066Z,12.15
2024-01-12T05:13:05.191Z,14.30
2024-01-12T05:15:32.831Z,11.70
2024-01-12T05:18:00.094Z,17.58
2024-01-12T05:20:27.287Z,14.27
2024-01-12T05:22:54.357Z,12.07
2024-01-12T05:25:21.363Z,14.52
2024-01-12T05:27:48.395Z,11.68
2024-01-12T05:30:15.584Z,14.40
2024-01-12T05:32:42.895Z,13.65
2024-01-12T05:35:11.157Z,12.63
2024-01-12T05:37:39.230Z,13.05
2024-01-12T05:40:07.032Z,13.18
2024-01-12T05:42:33.999Z,12.68
2024-01-12T05:45:01.241Z,16.00
2024-01-12T05:47:28.377Z,15.70
2024-01-12T05:49:55.893Z,14.15
2024-01-12T05:52:22.963Z,17.02
2024-01-12T05:54:51.543Z,15.10
2024-01-12T05:57:19.226Z,15.35
2024-01-12T05:59:46.355Z,13.55
2024-01-12T06:02:16.402Z,12.18
2024-01-12T06:04:43.587Z,12.00
2024-01-12T06:07:10.558Z,20.70
2024-01-12T06:09:37.481Z,18.08
2024-01-12T06:12:04.870Z,16.15
2024-01-12T06:14:31.804Z,16.35
2024-01-12T06:16:58.915Z,17.58
2024-01-12T06:19:26.231Z,17.20
2024-01-12T06:21:53.238Z,13.55
2024-01-12T06:24:20.171Z,15.43
2024-01-12T06:26:47.159Z,14.85
2024-01-12T06:29:14.412Z,16.70
2024-01-12T06:31:41.297Z,17.17
2024-01-12T06:34:08.254Z,20.15
2024-01-12T06:36:35.186Z,21.63
2024-01-12T06:39:02.137Z,22.13
2024-01-12T06:41:29.213Z,22.63
2024-01-12T06:43:56.165Z,22.52
2024-01-12T06:46:23.075Z,22.00
2024-01-12T06:48:50.074Z,21.40
2024-01-12T06:51:24.457Z,22.55
2024-01-12T06:53:51.401Z,22.95
2024-01-12T06:56:22.820Z,26.40
2024-01-12T06:58:49.795Z,28.15
2024-01-12T07:01:20.796Z,37.80
2024-01-12T07:03:47.901Z,36.65
2024-01-12T07:06:14.932Z,30.70
2024-01-12T07:08:41.958Z,26.98
2024-01-12T07:11:09.193Z,18.80
2024-01-12T07:13:36.931Z,13.70
2024-01-12T07:16:04.345Z,14.32
2024-01-12T07:18:31.526Z,16.40
2024-01-12T07:21:04.233Z,16.88
2024-01-12T07:23:32.446Z,12.27
2024-01-12T07:26:00.288Z,17.30
2024-01-12T07:28:27.617Z,17.58
2024-01-12T07:30:56.191Z,15.57
2024-01-12T07:33:23.534Z,12.07
2024-01-12T07:35:50.627Z,14.68
2024-01-12T07:38:19.572Z,13.15
2024-01-12T07:40:48.249Z,16.33
2024-01-12T07:43:15.940Z,15.02
2024-01-12T07:45:43.054Z,14.52
2024-01-12T07:48:10.427Z,16.23
2024-01-12T07:50:38.323Z,12.48
2024-01-12T07:53:05.794Z,10.77
2024-01-12T07:55:32.917Z,12.23
2024-01-12T07:57:59.833Z,12.80
2024-01-12T08:00:27.141Z,14.77
2024-01-12T08:02:54.286Z,12.63
2024-01-12T08:05:23.570Z,14.13
2024-01-12T08:07:51.975Z,14.13
2024-01-12T08:10:19.638Z,12.85
2024-01-12T08:12:47.158Z,10.63
2024-01-12T08:15:14.189Z,12.40
2024-01-12T08:17:42.445Z,13.50
2024-01-12T08:20:10.146Z,12.95
2024-01-12T08:22:37.099Z,16.63
2024-01-12T08:25:04.541Z,19.90
2024-01-12T08:27:31.503Z,18.67
2024-01-12T08:29:59.064Z,19.38
2024-01-12T08:32:26.161Z,22.25
2024-01-12T08:34:53.280Z,18.63
2024-01-12T08:37:20.218Z,17.23
2024-01-12T08:39:47.124Z,13.93
2024-01-12T08:42:14.125Z,10.50
2024-01-12T08:44:41.660Z,10.38
2024-01-12T08:47:08.585Z,12.25
2024-01-12T08:49:35.558Z,11.32
2024-01-12T08:52:02.558Z,11.57
2024-01-12T08:54:29.499Z,11.20
2024-01-12T08:56:56.531Z,11.90
2024-01-12T08:59:23.668Z,13.88
2024-01-12T09:01:50.690Z,14.85
2024-01-12T09:04:17.799Z,11.20
2024-01-12T09:06:44.929Z,15.48
2024-01-12T09:09:12.600Z,11.73
2024-01-12T09:11:39.603Z,10.70
2024-01-12T09:14:09.323Z,10.73
2024-01-12T09:16:37.541Z,13.55
2024-01-12T09:19:04.887Z,8.43
2024-01-12T09:21:32.024Z,12.57
2024-01-12T09:23:59.093Z,9.48
2024-01-12T09:26:26.670Z,10.82
2024-01-12T09:28:53.704Z,10.43
2024-01-12T09:31:20.708Z,9.57
2024-01-12T09:33:47.889Z,13.30
2024-01-12T09:36:15.059Z,12.38
2024-01-12T09:38:42.052Z,11.40
2024-01-12T09:41:11.194Z,11.98
2024-01-12T09:43:43.409Z,12.02
2024-01-12T09:46:11.130Z,12.35
2024-01-12T09:48:42.657Z,19.15
2024-01-12T09:51:12.435Z,12.90
2024-01-12T09:53:39.492Z,10.93
2024-01-12T09:56:08.214Z,11.55
2024-01-12T09:58:41.992Z,8.98
2024-01-12T10:01:11.573Z,11.75
2024-01-12T10:03:40.210Z,12.00
2024-01-12T10:06:07.483Z,12.43
2024-01-12T10:08:38.623Z,12.02
2024-01-12T10:11:05.681Z,10.10
2024-01-12T10:13:33.101Z,10.60
2024-01-12T10:16:02.670Z,16.20
2024-01-12T10:18:32.125Z,11.35
2024-01-12T10:21:11.851Z,14.38
2024-01-12T10:23:39.064Z,10.77
2024-01-12T10:26:06.797Z,9.73
2024-01-12T10:28:34.590Z,9.52
2024-01-12T10:31:11.045Z,12.93
2024-01-12T10:33:42.393Z,10.05
2024-01-12T10:36:22.255Z,15.02
2024-01-12T10:38:51.945Z,15.98
2024-01-12T10:41:23.319Z,10.35
2024-01-12T10:43:57.311Z,11.18
2024-01-12T10:46:41.618Z,9.05
2024-01-12T10:49:24.955Z,18.67
2024-01-12T10:52:26.168Z,10.35
2024-01-12T10:55:06.170Z,10.43
2024-01-12T10:57:36.505Z,8.20
2024-01-12T11:00:06.599Z,10.43
2024-01-12T11:02:34.241Z,6.55
2024-01-12T11:05:02.195Z,7.07
2024-01-12T11:07:30.202Z,6.63
2024-01-12T11:09:58.586Z,7.95
2024-01-12T11:12:38.980Z,8.27
2024-01-12T11:15:08.911Z,8.70
2024-01-12T11:17:38.055Z,9.00
2024-01-12T11:20:20.897Z,8.57
2024-01-12T11:22:50.693Z,9.30
2024-01-12T11:25:20.881Z,9.25
2024-01-12T11:27:52.072Z,9.40
2024-01-12T11:30:26.071Z,9.80
2024-01-12T11:33:05.827Z,12.52
2024-01-12T11:35:34.017Z,12.35
2024-01-12T11:38:03.940Z,12.95
2024-01-12T11:40:31.825Z,10.80
2024-01-12T11:43:04.081Z,17.67
2024-01-12T11:45:33.638Z,43.78
2024-01-12T11:48:05.177Z,20.25
2024-01-12T11:50:32.914Z,13.75
2024-01-12T11:53:02.118Z,15.85
2024-01-12T11:55:29.508Z,10.25
2024-01-12T11:57:57.106Z,12.70
2024-01-12T12:00:24.762Z,15.18
2024-01-12T12:02:55.441Z,13.10
2024-01-12T12:05:25.393Z,9.80
2024-01-12T12:07:53.780Z,12.30
2024-01-12T12:10:26.803Z,14.15
2024-01-12T12:13:00.230Z,13.00
2024-01-12T12:15:27.330Z,12.90
2024-01-12T12:17:56.438Z,9.50
2024-01-12T12:20:25.445Z,10.32
2024-01-12T12:22:53.094Z,10.15
2024-01-12T12:25:20.352Z,10.38
2024-01-12T12:27:47.935Z,14.57
2024-01-12T12:30:17.399Z,10.18
2024-01-12T12:32:47.463Z,14.25
2024-01-12T12:35:21.658Z,14.90
2024-01-12T12:37:49.671Z,13.02
2024-01-12T12:40:20.492Z,11.05
2024-01-12T12:42:49.231Z,12.63
2024-01-12T12:45:18.456Z,11.75
2024-01-12T12:47:48.813Z,12.50
2024-01-12T12:50:16.312Z,10.27
2024-01-12T12:52:45.684Z,16.13
2024-01-12T12:55:13.258Z,13.27
2024-01-12T12:57:41.765Z,12.43
2024-01-12T13:00:12.780Z,10.57
2024-01-12T13:02:40.084Z,12.68
2024-01-12T13:05:09.874Z,13.80
2024-01-12T13:07:37.104Z,11.88
2024-01-12T13:10:06.355Z,10.90
2024-01-12T13:12:33.516Z,12.50
2024-01-12T13:15:00.773Z,11.23
2024-01-12T13:17:28.112Z,13.20
2024-01-12T13:19:55.360Z,11.07
2024-01-12T13:22:22.447Z,12.38
2024-01-12T13:24:50.205Z,12.27
2024-01-12T13:27:17.325Z,11.77
2024-01-12T13:29:44.403Z,12.15
2024-01-12T13:32:12.145Z,11.90
2024-01-12T13:34:39.512Z,10.63
2024-01-12T13:37:06.730Z,12.98
2024-01-12T13:39:33.848Z,10.35
2024-01-12T13:42:02.786Z,25.08
2024-01-12T13:44:30.108Z,29.33
2024-01-12T13:46:57.274Z,10.88
2024-01-12T13:49:25.368Z,12.50
2024-01-12T13:51:52.713Z,13.40
2024-01-12T13:54:20.147Z,13.30
2024-01-12T13:56:47.661Z,14.40
2024-01-12T13:59:15.714Z,17.17
2024-01-12T14:01:43.251Z,15.13
2024-01-12T14:04:13.150Z,25.23
2024-01-12T14:06:42.660Z,25.75
2024-01-12T14:09:11.712Z,21.30
2024-01-12T14:11:39.991Z,16.00
2024-01-12T14:14:07.319Z,16.30
2024-01-12T14:16:34.500Z,25.02
2024-01-12T14:19:01.881Z,23.05
2024-01-12T14:21:29.121Z,23.60
2024-01-12T14:23:56.310Z,25.17
2024-01-12T14:26:24.577Z,16.73
2024-01-12T14:28:52.740Z,19.45
2024-01-12T14:31:19.983Z,16.65
2024-01-12T14:33:48.093Z,17.95
2024-01-12T14:36:16.005Z,16.38
2024-01-12T14:38:44.356Z,17.60
2024-01-12T14:41:11.659Z,15.85
2024-01-12T14:43:38.753Z,15.48
2024-01-12T14:46:06.051Z,16.13
2024-01-12T14:48:35.777Z,17.30
2024-01-12T14:51:05.508Z,14.77
2024-01-12T14:53:39.600Z,14.18
2024-01-12T14:56:13.041Z,12.68
2024-01-12T14:58:41.885Z,15.98
2024-01-12T15:01:09.216Z,17.90
2024-01-12T15:03:36.476Z,26.77
2024-01-12T15:06:04.600Z,17.30
2024-01-12T15:08:33.642Z,18.25
2024-01-12T15:11:00.925Z,19.75
2024-01-12T15:13:29.203Z,21.98
2024-01-12T15:15:57.546Z,25.27
2024-01-12T15:18:25.574Z,69.40
2024-01-12T15:20:57.835Z,46.00
2024-01-12T15:23:27.105Z,33.28
2024-01-12T15:25:57.555Z,26.67
2024-01-12T15:28:25.129Z,22.60
2024-01-12T15:30:52.677Z,23.08
2024-01-12T15:33:20.095Z,23.98
2024-01-12T15:35:47.659Z,18.92
2024-01-12T15:38:14.808Z,20.55
2024-01-12T15:40:41.934Z,18.63
2024-01-12T15:43:09.134Z,26.00
2024-01-12T15:45:36.227Z,24.35
2024-01-12T15:48:03.558Z,17.05
2024-01-12T15:50:31.220Z,18.77
2024-01-12T15:52:58.638Z,19.10
2024-01-12T15:55:25.697Z,17.65
2024-01-12T15:57:52.767Z,14.85
2024-01-12T16:00:20.162Z,16.08
2024-01-12T16:02:47.336Z,16.83
2024-01-12T16:05:14.937Z,15.85
2024-01-12T16:07:42.967Z,13.98
2024-01-12T16:10:12.044Z,13.02
2024-01-12T16:12:39.180Z,16.05
2024-01-12T16:15:08.544Z,14.55
2024-01-12T16:17:36.314Z,14.75
2024-01-12T16:20:04.332Z,15.77
2024-01-12T16:22:31.512Z,15.65
2024-01-12T16:24:58.906Z,16.65
2024-01-12T16:27:27.851Z,14.05
2024-01-12T16:29:55.135Z,13.15
2024-01-12T16:32:22.351Z,15.38
2024-01-12T16:34:49.877Z,14.55
2024-01-12T16:37:16.970Z,25.70
2024-01-12T16:39:45.072Z,16.63
2024-01-12T16:42:12.855Z,14.55
2024-01-12T16:44:40.341Z,14.23
2024-01-12T16:47:07.484Z,13.68
2024-01-12T16:49:38.067Z,17.27
2024-01-12T16:52:05.685Z,15.27
2024-01-12T16:54:32.861Z,18.02
2024-01-12T16:57:00.103Z,18.77
2024-01-12T16:59:29.651Z,24.77
2024-01-12T17:01:56.895Z,19.55
2024-01-12T17:04:23.802Z,21.10
2024-01-12T17:06:54.874Z,21.05
2024-01-12T17:09:22.930Z,22.17
2024-01-12T17:11:50.037Z,16.35
2024-01-12T17:14:16.993Z,16.60
2024-01-12T17:16:44.756Z,26.63
2024-01-12T17:19:12.061Z,26.73
2024-01-12T17:21:39.307Z,20.52
2024-01-12T17:24:06.766Z,18.08
2024-01-12T17:26:36.950Z,21.00
2024-01-12T17:29:04.126Z,21.25
2024-01-12T17:31:31.525Z,20.75
2024-01-12T17:33:58.957Z,21.75
2024-01-12T17:36:26.151Z,17.98
2024-01-12T17:38:54.436Z,16.90
2024-01-12T17:41:24.450Z,18.10
2024-01-12T17:43:52.245Z,19.02
2024-01-12T17:46:19.309Z,18.42
2024-01-12T17:48:46.678Z,19.98
2024-01-12T17:51:16.628Z,19.05
2024-01-12T17:53:45.004Z,18.00
2024-01-12T17:56:13.003Z,22.33
2024-01-12T17:58:40.183Z,20.00
2024-01-12T18:01:07.180Z,25.23
2024-01-12T18:03:34.390Z,19.88
2024-01-12T18:06:05.072Z,22.95
2024-01-12T18:08:32.484Z,42.13
2024-01-12T18:10:59.557Z,25.15
2024-01-12T18:13:26.813Z,21.83
2024-01-12T18:15:53.919Z,21.00
2024-01-12T18:18:21.127Z,26.55
2024-01-12T18:20:48.301Z,34.80
2024-01-12T18:23:15.281Z,35.85
2024-01-12T18:25:42.248Z,22.15
2024-01-12T18:28:09.191Z,28.88
2024-01-12T18:30:36.122Z,30.13
2024-01-12T18:33:04.609Z,26.75
2024-01-12T18:35:31.702Z,28.88
2024-01-12T18:37:58.655Z,29.85
2024-01-12T18:40:25.642Z,27.23
2024-01-12T18:42:52.565Z,34.22
2024-01-12T18:45:19.713Z,44.60
2024-01-12T18:47:46.747Z,27.35
2024-01-12T18:50:13.806Z,23.40
2024-01-12T18:52:44.833Z,24.30
2024-01-12T18:55:11.794Z,21.77
2024-01-12T18:57:39.099Z,25.95
2024-01-12T19:00:07.802Z,22.33
2024-01-12T19:02:35.333Z,29.88
2024-01-12T19:05:03.761Z,33.72
2024-01-12T19:07:30.750Z,28.67
2024-01-12T19:09:57.649Z,37.28
2024-01-12T19:12:24.819Z,29.67
2024-01-12T19:14:51.962Z,32.67
2024-01-12T19:17:18.953Z,31.67
2024-01-12T19:19:46.111Z,34.97
2024-01-12T19:22:13.107Z,31.15
2024-01-12T19:24:44.819Z,24.70
2024-01-12T19:27:12.661Z,24.45
2024-01-12T19:29:39.841Z,48.08
2024-01-12T19:32:11.556Z,31.75
2024-01-12T19:34:42.437Z,28.33
2024-01-12T19:37:10.001Z,25.38
2024-01-12T19:39:37.572Z,24.95
2024-01-12T19:42:04.922Z,23.88
2024-01-12T19:44:32.061Z,29.48
2024-01-12T19:46:59.052Z,21.58
2024-01-12T19:49:26.040Z,28.23
2024-01-12T19:51:53.168Z,21.02
2024-01-12T19:54:20.674Z,23.30
2024-01-12T19:56:47.771Z,26.55
2024-01-12T19:59:16.647Z,21.80
2024-01-12T20:01:44.787Z,22.23
2024-01-12T20:04:12.234Z,21.17
2024-01-12T20:06:39.742Z,19.10
2024-01-12T20:09:07.064Z,21.70
2024-01-12T20:11:34.273Z,22.65
2024-01-12T20:14:01.335Z,18.13
2024-01-12T20:16:31.110Z,26.13
2024-01-12T20:18:59.624Z,23.90
2024-01-12T20:21:28.487Z,35.83
2024-01-12T20:23:55.644Z,26.88
2024-01-12T20:26:22.740Z,37.50
2024-01-12T20:28:50.293Z,24.50
2024-01-12T20:31:17.842Z,30.02
2024-01-12T20:33:46.630Z,27.02
2024-01-12T20:36:14.063Z,27.80
2024-01-12T20:38:41.097Z,25.15
2024-01-12T20:41:08.850Z,33.40
2024-01-12T20:43:35.796Z,22.48
2024-01-12T20:46:02.814Z,27.00
2024-01-12T20:48:29.918Z,28.52
2024-01-12T20:50:58.513Z,21.35
2024-01-12T20:53:25.539Z,19.10
2024-01-12T20:55:52.664Z,21.45
2024-01-12T20:58:19.696Z,21.13
2024-01-12T21:00:46.698Z,22.65
2024-01-12T21:03:14.615Z,18.90
2024-01-12T21:05:42.529Z,30.17
2024-01-12T21:08:09.614Z,27.35
2024-01-12T21:10:36.612Z,28.17
2024-01-12T21:13:03.598Z,27.75
2024-01-12T21:15:32.391Z,22.95
2024-01-12T21:18:00.396Z,25.45
2024-01-12T21:20:27.600Z,24.33
2024-01-12T21:22:54.617Z,22.27
2024-01-12T21:25:21.639Z,22.90
2024-01-12T21:27:48.621Z,23.58
2024-01-12T21:30:15.930Z,21.25
2024-01-12T21:32:43.286Z,23.52
2024-01-12T21:35:10.472Z,21.08
2024-01-12T21:37:37.469Z,21.40
2024-01-12T21:40:06.847Z,19.15
2024-01-12T21:42:33.800Z,22.00
2024-01-12T21:45:00.969Z,20.45
2024-01-12T21:47:28.220Z,22.02
2024-01-12T21:49:55.263Z,32.28
2024-01-12T21:52:22.295Z,19.35
2024-01-12T21:54:49.308Z,21.90
2024-01-12T21:57:16.300Z,30.73
2024-01-12T21:59:43.651Z,24.95
2024-01-12T22:02:11.566Z,26.92
2024-01-12T22:04:38.714Z,22.30
2024-01-12T22:07:05.790Z,19.98
2024-01-12T22:09:32.866Z,21.00
2024-01-12T22:12:00.053Z,21.10
2024-01-12T22:14:27.092Z,18.35
2024-01-12T22:16:54.482Z,26.55
2024-01-12T22:19:21.884Z,25.10
2024-01-12T22:21:48.983Z,26.88
2024-01-12T22:24:17.448Z,17.27
2024-01-12T22:26:44.829Z,19.33
2024-01-12T22:29:11.877Z,17.98
2024-01-12T22:31:38.899Z,23.33
2024-01-12T22:34:06.089Z,25.17
2024-01-12T22:36:34.445Z,22.00
2024-01-12T22:39:01.631Z,22.20
2024-01-12T22:41:28.848Z,22.38
2024-01-12T22:43:55.971Z,23.63
2024-01-12T22:46:23.130Z,24.25
2024-01-12T22:48:50.336Z,19.73
2024-01-12T22:51:17.441Z,21.38
2024-01-12T22:53:44.532Z,21.98
2024-01-12T22:56:13.322Z,19.85
2024-01-12T22:58:43.567Z,19.80
2024-01-12T23:01:10.593Z,27.45
2024-01-12T23:03:37.815Z,20.25
2024-01-12T23:06:05.752Z,22.55
2024-01-12T23:08:32.834Z,22.98
2024-01-12T23:11:00.380Z,24.38
2024-01-12T23:13:27.379Z,22.45
2024-01-12T23:15:54.786Z,19.20
2024-01-12T23:18:21.978Z,22.90
2024-01-12T23:20:49.353Z,21.00
2024-01-12T23:23:17.584Z,26.73
2024-01-12T23:25:44.759Z,22.58
2024-01-12T23:28:11.856Z,23.67
2024-01-12T23:30:39.038Z,17.58
2024-01-12T23:33:06.460Z,21.05
2024-01-12T23:35:33.750Z,21.83
2024-01-12T23:38:00.794Z,21.13
2024-01-12T23:40:28.107Z,22.73
2024-01-12T23:42:55.249Z,23.60
2024-01-12T23:45:22.409Z,19.45
2024-01-12T23:47:49.603Z,22.67
2024-01-12T23:50:16.708Z,23.48
2024-01-12T23:52:43.879Z,20.02
2024-01-12T23:55:11.009Z,22.92
2024-01-12T23:57:38.173Z,22.10
